sensor_id;sensor_type;location;lat;lon;timestamp;P1;durP1;ratioP1;P2;durP2;ratioP2
4268;SDS011;2148;48.554;7.834;2023-12-28T00:00:13;3.27;;;2.97;;
4268;SDS011;2148;48.554;7.834;2023-12-28T00:02:39;5.00;;;3.70;;
4268;SDS011;2148;48.554;7.834;2023-12-28T00:05:05;4.07;;;3.73;;
4268;SDS011;2148;48.554;7.834;2023-12-28T00:07:31;4.10;;;3.70;;
4268;SDS011;2148;48.554;7.834;2023-12-28T00:09:56;3.27;;;2.97;;
4268;SDS011;2148;48.554;7.834;2023-12-28T00:12:22;4.27;;;3.87;;
4268;SDS011;2148;48.554;7.834;2023-12-28T00:14:47;3.97;;;3.20;;
4268;SDS011;2148;48.554;7.834;2023-12-28T00:17:13;3.97;;;3.30;;
4268;SDS011;2148;48.554;7.834;2023-12-28T00:19:39;3.97;;;2.80;;
4268;SDS011;2148;48.554;7.834;2023-12-28T00:22:04;3.63;;;2.90;;
4268;SDS011;2148;48.554;7.834;2023-12-28T00:24:29;3.80;;;3.40;;
4268;SDS011;2148;48.554;7.834;2023-12-28T00:26:54;3.80;;;3.43;;
4268;SDS011;2148;48.554;7.834;2023-12-28T00:29:19;3.80;;;3.13;;
4268;SDS011;2148;48.554;7.834;2023-12-28T00:31:45;3.80;;;3.43;;
4268;SDS011;2148;48.554;7.834;2023-12-28T00:34:10;3.87;;;3.40;;
4268;SDS011;2148;48.554;7.834;2023-12-28T00:36:35;3.37;;;3.07;;
4268;SDS011;2148;48.554;7.834;2023-12-28T00:39:01;2.80;;;2.60;;
4268;SDS011;2148;48.554;7.834;2023-12-28T00:41:26;3.50;;;3.20;;
4268;SDS011;2148;48.554;7.834;2023-12-28T00:43:51;4.10;;;2.80;;
4268;SDS011;2148;48.554;7.834;2023-12-28T00:46:16;2.90;;;2.67;;
4268;SDS011;2148;48.554;7.834;2023-12-28T00:48:41;4.67;;;2.70;;
4268;SDS011;2148;48.554;7.834;2023-12-28T00:51:07;3.30;;;2.53;;
4268;SDS011;2148;48.554;7.834;2023-12-28T00:53:32;2.30;;;2.03;;
4268;SDS011;2148;48.554;7.834;2023-12-28T00:55:57;2.67;;;2.47;;
4268;SDS011;2148;48.554;7.834;2023-12-28T00:58:23;3.60;;;3.13;;
4268;SDS011;2148;48.554;7.834;2023-12-28T01:00:48;3.30;;;2.60;;
4268;SDS011;2148;48.554;7.834;2023-12-28T01:03:13;3.20;;;2.90;;
4268;SDS011;2148;48.554;7.834;2023-12-28T01:05:38;2.50;;;2.30;;
4268;SDS011;2148;48.554;7.834;2023-12-28T01:08:04;2.70;;;2.03;;
4268;SDS011;2148;48.554;7.834;2023-12-28T01:10:29;2.50;;;2.30;;
4268;SDS011;2148;48.554;7.834;2023-12-28T01:12:54;3.13;;;2.83;;
4268;SDS011;2148;48.554;7.834;2023-12-28T01:15:19;3.43;;;3.13;;
4268;SDS011;2148;48.554;7.834;2023-12-28T01:17:45;3.17;;;2.77;;
4268;SDS011;2148;48.554;7.834;2023-12-28T01:20:11;2.77;;;2.47;;
4268;SDS011;2148;48.554;7.834;2023-12-28T01:22:36;2.60;;;2.40;;
4268;SDS011;2148;48.554;7.834;2023-12-28T01:25:02;2.43;;;1.77;;
4268;SDS011;2148;48.554;7.834;2023-12-28T01:27:27;5.13;;;3.00;;
4268;SDS011;2148;48.554;7.834;2023-12-28T01:29:52;2.23;;;2.00;;
4268;SDS011;2148;48.554;7.834;2023-12-28T01:32:18;3.40;;;2.33;;
4268;SDS011;2148;48.554;7.834;2023-12-28T01:34:43;2.50;;;2.23;;
4268;SDS011;2148;48.554;7.834;2023-12-28T01:37:08;3.30;;;2.70;;
4268;SDS011;2148;48.554;7.834;2023-12-28T01:39:34;2.47;;;2.27;;
4268;SDS011;2148;48.554;7.834;2023-12-28T01:41:59;3.93;;;3.00;;
4268;SDS011;2148;48.554;7.834;2023-12-28T01:44:24;2.40;;;2.20;;
4268;SDS011;2148;48.554;7.834;2023-12-28T01:46:49;2.63;;;2.40;;
4268;SDS011;2148;48.554;7.834;2023-12-28T01:49:15;2.30;;;2.10;;
4268;SDS011;2148;48.554;7.834;2023-12-28T01:51:40;3.77;;;2.67;;
4268;SDS011;2148;48.554;7.834;2023-12-28T01:54:06;2.60;;;2.40;;
4268;SDS011;2148;48.554;7.834;2023-12-28T01:56:32;3.33;;;2.13;;
4268;SDS011;2148;48.554;7.834;2023-12-28T01:58:57;3.13;;;2.17;;
4268;SDS011;2148;48.554;7.834;2023-12-28T02:01:24;4.17;;;2.50;;
4268;SDS011;2148;48.554;7.834;2023-12-28T02:03:51;2.00;;;1.90;;
4268;SDS011;2148;48.554;7.834;2023-12-28T02:06:16;2.70;;;2.50;;
4268;SDS011;2148;48.554;7.834;2023-12-28T02:08:41;3.33;;;2.53;;
4268;SDS011;2148;48.554;7.834;2023-12-28T02:11:07;2.63;;;2.43;;
4268;SDS011;2148;48.554;7.834;2023-12-28T02:13:32;2.77;;;2.57;;
4268;SDS011;2148;48.554;7.834;2023-12-28T02:16:06;2.77;;;2.10;;
4268;SDS011;2148;48.554;7.834;2023-12-28T02:18:34;3.57;;;2.47;;
4268;SDS011;2148;48.554;7.834;2023-12-28T02:21:04;2.77;;;2.47;;
4268;SDS011;2148;48.554;7.834;2023-12-28T02:23:32;3.10;;;2.80;;
4268;SDS011;2148;48.554;7.834;2023-12-28T02:25:58;3.13;;;2.73;;
4268;SDS011;2148;48.554;7.834;2023-12-28T02:28:23;4.57;;;2.57;;
4268;SDS011;2148;48.554;7.834;2023-12-28T02:30:48;2.37;;;2.03;;
4268;SDS011;2148;48.554;7.834;2023-12-28T02:35:49;4.43;;;2.40;;
4268;SDS011;2148;48.554;7.834;2023-12-28T02:38:17;2.30;;;2.17;;
4268;SDS011;2148;48.554;7.834;2023-12-28T02:40:43;2.73;;;2.53;;
4268;SDS011;2148;48.554;7.834;2023-12-28T02:43:09;2.23;;;2.13;;
4268;SDS011;2148;48.554;7.834;2023-12-28T02:45:35;2.33;;;2.17;;
4268;SDS011;2148;48.554;7.834;2023-12-28T02:48:00;3.53;;;2.10;;
4268;SDS011;2148;48.554;7.834;2023-12-28T02:50:26;3.07;;;2.17;;
4268;SDS011;2148;48.554;7.834;2023-12-28T02:52:51;2.73;;;2.13;;
4268;SDS011;2148;48.554;7.834;2023-12-28T02:55:16;2.33;;;2.13;;
4268;SDS011;2148;48.554;7.834;2023-12-28T02:57:43;2.30;;;2.10;;
4268;SDS011;2148;48.554;7.834;2023-12-28T03:00:09;3.10;;;2.70;;
4268;SDS011;2148;48.554;7.834;2023-12-28T03:02:35;4.03;;;3.33;;
4268;SDS011;2148;48.554;7.834;2023-12-28T03:05:02;3.00;;;2.73;;
4268;SDS011;2148;48.554;7.834;2023-12-28T03:07:28;2.10;;;1.97;;
4268;SDS011;2148;48.554;7.834;2023-12-28T03:09:53;2.90;;;2.60;;
4268;SDS011;2148;48.554;7.834;2023-12-28T03:12:18;2.80;;;2.60;;
4268;SDS011;2148;48.554;7.834;2023-12-28T03:14:43;3.13;;;2.10;;
4268;SDS011;2148;48.554;7.834;2023-12-28T03:17:09;2.70;;;2.03;;
4268;SDS011;2148;48.554;7.834;2023-12-28T03:19:35;4.37;;;2.53;;
4268;SDS011;2148;48.554;7.834;2023-12-28T03:22:01;2.67;;;2.30;;
4268;SDS011;2148;48.554;7.834;2023-12-28T03:24:26;2.40;;;2.10;;
4268;SDS011;2148;48.554;7.834;2023-12-28T03:26:51;2.97;;;2.40;;
4268;SDS011;2148;48.554;7.834;2023-12-28T03:29:16;2.47;;;2.27;;
4268;SDS011;2148;48.554;7.834;2023-12-28T03:31:42;2.73;;;2.53;;
4268;SDS011;2148;48.554;7.834;2023-12-28T03:34:07;2.50;;;2.30;;
4268;SDS011;2148;48.554;7.834;2023-12-28T03:36:32;1.87;;;1.77;;
4268;SDS011;2148;48.554;7.834;2023-12-28T03:39:00;3.87;;;2.37;;
4268;SDS011;2148;48.554;7.834;2023-12-28T03:41:26;2.13;;;1.97;;
4268;SDS011;2148;48.554;7.834;2023-12-28T03:43:51;2.23;;;2.00;;
4268;SDS011;2148;48.554;7.834;2023-12-28T03:46:16;2.43;;;2.20;;
4268;SDS011;2148;48.554;7.834;2023-12-28T03:48:42;4.57;;;2.80;;
4268;SDS011;2148;48.554;7.834;2023-12-28T03:51:07;2.67;;;2.47;;
4268;SDS011;2148;48.554;7.834;2023-12-28T03:53:32;2.57;;;2.37;;
4268;SDS011;2148;48.554;7.834;2023-12-28T03:55:58;2.30;;;2.10;;
4268;SDS011;2148;48.554;7.834;2023-12-28T03:58:23;2.17;;;1.97;;
4268;SDS011;2148;48.554;7.834;2023-12-28T04:00:48;2.93;;;2.33;;
4268;SDS011;2148;48.554;7.834;2023-12-28T04:03:14;3.20;;;2.10;;
4268;SDS011;2148;48.554;7.834;2023-12-28T04:05:39;2.43;;;2.23;;
4268;SDS011;2148;48.554;7.834;2023-12-28T04:08:04;4.07;;;2.83;;
4268;SDS011;2148;48.554;7.834;2023-12-28T04:10:31;3.23;;;2.80;;
4268;SDS011;2148;48.554;7.834;2023-12-28T04:12:57;3.50;;;3.07;;
4268;SDS011;2148;48.554;7.834;2023-12-28T04:15:24;2.30;;;2.10;;
4268;SDS011;2148;48.554;7.834;2023-12-28T04:17:49;3.63;;;2.80;;
4268;SDS011;2148;48.554;7.834;2023-12-28T04:20:15;3.07;;;2.50;;
4268;SDS011;2148;48.554;7.834;2023-12-28T04:22:40;3.30;;;3.00;;
4268;SDS011;2148;48.554;7.834;2023-12-28T04:25:06;3.17;;;2.80;;
4268;SDS011;2148;48.554;7.834;2023-12-28T04:27:31;2.90;;;2.60;;
4268;SDS011;2148;48.554;7.834;2023-12-28T04:29:56;3.30;;;2.90;;
4268;SDS011;2148;48.554;7.834;2023-12-28T04:32:22;4.67;;;2.50;;
4268;SDS011;2148;48.554;7.834;2023-12-28T04:34:48;2.57;;;2.37;;
4268;SDS011;2148;48.554;7.834;2023-12-28T04:37:14;4.20;;;2.70;;
4268;SDS011;2148;48.554;7.834;2023-12-28T04:39:39;3.43;;;2.87;;
4268;SDS011;2148;48.554;7.834;2023-12-28T04:42:04;4.27;;;2.80;;
4268;SDS011;2148;48.554;7.834;2023-12-28T04:44:30;2.10;;;2.00;;
4268;SDS011;2148;48.554;7.834;2023-12-28T04:46:55;2.20;;;2.00;;
4268;SDS011;2148;48.554;7.834;2023-12-28T04:49:20;2.63;;;2.40;;
4268;SDS011;2148;48.554;7.834;2023-12-28T04:51:45;2.53;;;2.30;;
4268;SDS011;2148;48.554;7.834;2023-12-28T04:54:11;3.00;;;2.80;;
4268;SDS011;2148;48.554;7.834;2023-12-28T04:56:36;3.17;;;2.50;;
4268;SDS011;2148;48.554;7.834;2023-12-28T04:59:01;2.50;;;2.30;;
4268;SDS011;2148;48.554;7.834;2023-12-28T05:01:26;2.60;;;2.30;;
4268;SDS011;2148;48.554;7.834;2023-12-28T05:03:56;2.87;;;2.17;;
4268;SDS011;2148;48.554;7.834;2023-12-28T05:06:21;2.10;;;2.00;;
4268;SDS011;2148;48.554;7.834;2023-12-28T05:08:47;2.13;;;1.93;;
4268;SDS011;2148;48.554;7.834;2023-12-28T05:11:12;2.80;;;2.17;;
4268;SDS011;2148;48.554;7.834;2023-12-28T05:13:37;4.17;;;2.10;;
4268;SDS011;2148;48.554;7.834;2023-12-28T05:16:03;3.03;;;2.20;;
4268;SDS011;2148;48.554;7.834;2023-12-28T05:18:28;2.40;;;2.20;;
4268;SDS011;2148;48.554;7.834;2023-12-28T05:20:54;3.57;;;2.60;;
4268;SDS011;2148;48.554;7.834;2023-12-28T05:23:19;4.23;;;2.63;;
4268;SDS011;2148;48.554;7.834;2023-12-28T05:25:44;2.70;;;2.50;;
4268;SDS011;2148;48.554;7.834;2023-12-28T05:28:11;3.17;;;2.53;;
4268;SDS011;2148;48.554;7.834;2023-12-28T05:30:36;2.30;;;2.10;;
4268;SDS011;2148;48.554;7.834;2023-12-28T05:33:01;1.87;;;1.73;;
4268;SDS011;2148;48.554;7.834;2023-12-28T05:35:27;2.77;;;2.57;;
4268;SDS011;2148;48.554;7.834;2023-12-28T05:37:52;2.73;;;2.53;;
4268;SDS011;2148;48.554;7.834;2023-12-28T05:40:17;3.53;;;2.50;;
4268;SDS011;2148;48.554;7.834;2023-12-28T05:42:42;3.03;;;2.60;;
4268;SDS011;2148;48.554;7.834;2023-12-28T05:45:08;3.73;;;2.10;;
4268;SDS011;2148;48.554;7.834;2023-12-28T05:47:34;3.53;;;2.83;;
4268;SDS011;2148;48.554;7.834;2023-12-28T05:49:59;2.70;;;2.50;;
4268;SDS011;2148;48.554;7.834;2023-12-28T05:52:25;3.93;;;3.10;;
4268;SDS011;2148;48.554;7.834;2023-12-28T05:54:50;2.97;;;2.77;;
4268;SDS011;2148;48.554;7.834;2023-12-28T05:57:15;3.17;;;2.83;;
4268;SDS011;2148;48.554;7.834;2023-12-28T05:59:40;2.80;;;2.60;;
4268;SDS011;2148;48.554;7.834;2023-12-28T06:02:06;3.57;;;3.23;;
4268;SDS011;2148;48.554;7.834;2023-12-28T06:04:31;3.30;;;3.00;;
4268;SDS011;2148;48.554;7.834;2023-12-28T06:06:58;2.90;;;2.60;;
4268;SDS011;2148;48.554;7.834;2023-12-28T06:09:23;3.70;;;3.10;;
4268;SDS011;2148;48.554;7.834;2023-12-28T06:11:48;4.10;;;2.90;;
4268;SDS011;2148;48.554;7.834;2023-12-28T06:14:13;2.70;;;2.50;;
4268;SDS011;2148;48.554;7.834;2023-12-28T06:16:39;3.07;;;2.63;;
4268;SDS011;2148;48.554;7.834;2023-12-28T06:19:04;2.67;;;2.47;;
4268;SDS011;2148;48.554;7.834;2023-12-28T06:21:30;4.00;;;2.60;;
4268;SDS011;2148;48.554;7.834;2023-12-28T06:23:56;3.10;;;2.80;;
4268;SDS011;2148;48.554;7.834;2023-12-28T06:26:21;3.33;;;3.00;;
4268;SDS011;2148;48.554;7.834;2023-12-28T06:28:47;2.80;;;2.50;;
4268;SDS011;2148;48.554;7.834;2023-12-28T06:31:12;3.10;;;2.80;;
4268;SDS011;2148;48.554;7.834;2023-12-28T06:33:37;2.50;;;2.30;;
4268;SDS011;2148;48.554;7.834;2023-12-28T06:36:07;3.00;;;2.67;;
4268;SDS011;2148;48.554;7.834;2023-12-28T06:38:32;2.60;;;2.40;;
4268;SDS011;2148;48.554;7.834;2023-12-28T06:40:58;2.47;;;1.90;;
4268;SDS011;2148;48.554;7.834;2023-12-28T06:43:23;4.27;;;2.80;;
4268;SDS011;2148;48.554;7.834;2023-12-28T06:45:48;2.33;;;2.13;;
4268;SDS011;2148;48.554;7.834;2023-12-28T06:48:14;3.07;;;2.50;;
4268;SDS011;2148;48.554;7.834;2023-12-28T06:50:39;2.90;;;2.70;;
4268;SDS011;2148;48.554;7.834;2023-12-28T06:53:04;2.87;;;2.03;;
4268;SDS011;2148;48.554;7.834;2023-12-28T06:55:29;3.10;;;2.60;;
4268;SDS011;2148;48.554;7.834;2023-12-28T06:57:55;2.73;;;2.27;;
4268;SDS011;2148;48.554;7.834;2023-12-28T07:00:21;2.40;;;2.20;;
4268;SDS011;2148;48.554;7.834;2023-12-28T07:02:46;2.63;;;2.43;;
4268;SDS011;2148;48.554;7.834;2023-12-28T07:05:11;2.47;;;2.27;;
4268;SDS011;2148;48.554;7.834;2023-12-28T07:07:38;2.70;;;2.37;;
4268;SDS011;2148;48.554;7.834;2023-12-28T07:10:04;2.50;;;2.30;;
4268;SDS011;2148;48.554;7.834;2023-12-28T07:12:30;5.57;;;2.50;;
4268;SDS011;2148;48.554;7.834;2023-12-28T07:14:55;3.23;;;2.93;;
4268;SDS011;2148;48.554;7.834;2023-12-28T07:17:20;2.60;;;2.40;;
4268;SDS011;2148;48.554;7.834;2023-12-28T07:19:45;3.07;;;2.50;;
4268;SDS011;2148;48.554;7.834;2023-12-28T07:22:11;3.63;;;2.60;;
4268;SDS011;2148;48.554;7.834;2023-12-28T07:24:36;2.40;;;2.13;;
4268;SDS011;2148;48.554;7.834;2023-12-28T07:27:01;3.17;;;2.67;;
4268;SDS011;2148;48.554;7.834;2023-12-28T07:29:26;3.93;;;3.10;;
4268;SDS011;2148;48.554;7.834;2023-12-28T07:31:53;3.30;;;3.00;;
4268;SDS011;2148;48.554;7.834;2023-12-28T07:34:18;2.90;;;2.70;;
4268;SDS011;2148;48.554;7.834;2023-12-28T07:36:44;3.30;;;2.63;;
4268;SDS011;2148;48.554;7.834;2023-12-28T07:39:09;3.20;;;2.90;;
4268;SDS011;2148;48.554;7.834;2023-12-28T07:41:35;3.13;;;2.83;;
4268;SDS011;2148;48.554;7.834;2023-12-28T07:44:01;3.47;;;2.90;;
4268;SDS011;2148;48.554;7.834;2023-12-28T07:46:26;3.30;;;3.00;;
4268;SDS011;2148;48.554;7.834;2023-12-28T07:48:52;3.30;;;2.77;;
4268;SDS011;2148;48.554;7.834;2023-12-28T07:51:17;3.40;;;3.10;;
4268;SDS011;2148;48.554;7.834;2023-12-28T07:53:42;3.50;;;2.93;;
4268;SDS011;2148;48.554;7.834;2023-12-28T07:56:07;4.37;;;3.17;;
4268;SDS011;2148;48.554;7.834;2023-12-28T07:58:33;2.73;;;2.53;;
4268;SDS011;2148;48.554;7.834;2023-12-28T08:00:58;3.63;;;2.80;;
4268;SDS011;2148;48.554;7.834;2023-12-28T08:03:23;3.70;;;2.80;;
4268;SDS011;2148;48.554;7.834;2023-12-28T08:05:48;4.10;;;3.10;;
4268;SDS011;2148;48.554;7.834;2023-12-28T08:08:14;3.10;;;2.80;;
4268;SDS011;2148;48.554;7.834;2023-12-28T08:10:39;4.63;;;2.80;;
4268;SDS011;2148;48.554;7.834;2023-12-28T08:13:04;2.57;;;2.37;;
4268;SDS011;2148;48.554;7.834;2023-12-28T08:15:29;3.23;;;2.93;;
4268;SDS011;2148;48.554;7.834;2023-12-28T08:17:55;3.17;;;2.87;;
4268;SDS011;2148;48.554;7.834;2023-12-28T08:20:20;3.60;;;3.00;;
4268;SDS011;2148;48.554;7.834;2023-12-28T08:22:45;3.60;;;3.30;;
4268;SDS011;2148;48.554;7.834;2023-12-28T08:25:11;3.10;;;2.80;;
4268;SDS011;2148;48.554;7.834;2023-12-28T08:27:36;3.30;;;2.97;;
4268;SDS011;2148;48.554;7.834;2023-12-28T08:30:01;3.60;;;2.73;;
4268;SDS011;2148;48.554;7.834;2023-12-28T08:32:27;3.07;;;2.47;;
4268;SDS011;2148;48.554;7.834;2023-12-28T08:34:52;5.13;;;3.13;;
4268;SDS011;2148;48.554;7.834;2023-12-28T08:37:17;4.40;;;3.70;;
4268;SDS011;2148;48.554;7.834;2023-12-28T08:39:43;4.27;;;3.87;;
4268;SDS011;2148;48.554;7.834;2023-12-28T08:42:08;4.77;;;4.17;;
4268;SDS011;2148;48.554;7.834;2023-12-28T08:44:33;8.40;;;5.43;;
4268;SDS011;2148;48.554;7.834;2023-12-28T08:47:00;4.80;;;3.83;;
4268;SDS011;2148;48.554;7.834;2023-12-28T08:49:25;3.93;;;3.40;;
4268;SDS011;2148;48.554;7.834;2023-12-28T08:51:50;4.57;;;3.00;;
4268;SDS011;2148;48.554;7.834;2023-12-28T08:54:16;3.40;;;2.83;;
4268;SDS011;2148;48.554;7.834;2023-12-28T08:56:41;5.20;;;3.00;;
4268;SDS011;2148;48.554;7.834;2023-12-28T08:59:06;4.23;;;3.47;;
4268;SDS011;2148;48.554;7.834;2023-12-28T09:01:31;3.87;;;2.90;;
4268;SDS011;2148;48.554;7.834;2023-12-28T09:03:57;3.47;;;2.90;;
4268;SDS011;2148;48.554;7.834;2023-12-28T09:06:23;4.57;;;2.50;;
4268;SDS011;2148;48.554;7.834;2023-12-28T09:08:49;3.50;;;2.90;;
4268;SDS011;2148;48.554;7.834;2023-12-28T09:11:15;3.67;;;2.97;;
4268;SDS011;2148;48.554;7.834;2023-12-28T09:13:41;2.90;;;2.70;;
4268;SDS011;2148;48.554;7.834;2023-12-28T09:16:12;3.90;;;2.77;;
4268;SDS011;2148;48.554;7.834;2023-12-28T09:18:38;2.77;;;2.30;;
4268;SDS011;2148;48.554;7.834;2023-12-28T09:21:04;2.87;;;2.60;;
4268;SDS011;2148;48.554;7.834;2023-12-28T09:23:30;2.90;;;2.70;;
4268;SDS011;2148;48.554;7.834;2023-12-28T09:25:56;3.03;;;2.70;;
4268;SDS011;2148;48.554;7.834;2023-12-28T09:28:22;3.20;;;2.93;;
4268;SDS011;2148;48.554;7.834;2023-12-28T09:30:48;3.03;;;2.67;;
4268;SDS011;2148;48.554;7.834;2023-12-28T09:33:13;3.13;;;2.73;;
4268;SDS011;2148;48.554;7.834;2023-12-28T09:35:38;2.90;;;2.60;;
4268;SDS011;2148;48.554;7.834;2023-12-28T09:38:03;3.53;;;3.23;;
4268;SDS011;2148;48.554;7.834;2023-12-28T09:40:29;3.60;;;3.30;;
4268;SDS011;2148;48.554;7.834;2023-12-28T09:43:03;3.57;;;3.07;;
4268;SDS011;2148;48.554;7.834;2023-12-28T09:45:40;6.60;;;3.93;;
4268;SDS011;2148;48.554;7.834;2023-12-28T09:48:05;5.83;;;4.00;;
4268;SDS011;2148;48.554;7.834;2023-12-28T09:50:32;3.70;;;3.30;;
4268;SDS011;2148;48.554;7.834;2023-12-28T09:52:57;4.53;;;3.70;;
4268;SDS011;2148;48.554;7.834;2023-12-28T09:55:22;4.50;;;3.77;;
4268;SDS011;2148;48.554;7.834;2023-12-28T09:57:49;6.53;;;4.00;;
4268;SDS011;2148;48.554;7.834;2023-12-28T10:00:15;3.50;;;3.10;;
4268;SDS011;2148;48.554;7.834;2023-12-28T10:02:43;4.87;;;3.53;;
4268;SDS011;2148;48.554;7.834;2023-12-28T10:05:12;4.70;;;3.27;;
4268;SDS011;2148;48.554;7.834;2023-12-28T10:07:42;4.30;;;3.03;;
4268;SDS011;2148;48.554;7.834;2023-12-28T10:10:08;3.80;;;3.50;;
4268;SDS011;2148;48.554;7.834;2023-12-28T10:12:34;4.30;;;3.03;;
4268;SDS011;2148;48.554;7.834;2023-12-28T10:14:59;6.03;;;3.70;;
4268;SDS011;2148;48.554;7.834;2023-12-28T10:17:25;3.73;;;3.30;;
4268;SDS011;2148;48.554;7.834;2023-12-28T10:19:50;3.57;;;3.03;;
4268;SDS011;2148;48.554;7.834;2023-12-28T10:22:15;3.30;;;3.00;;
4268;SDS011;2148;48.554;7.834;2023-12-28T10:24:42;3.83;;;3.30;;
4268;SDS011;2148;48.554;7.834;2023-12-28T10:27:08;4.20;;;3.73;;
4268;SDS011;2148;48.554;7.834;2023-12-28T10:29:33;4.87;;;3.43;;
4268;SDS011;2148;48.554;7.834;2023-12-28T10:32:00;6.20;;;3.93;;
4268;SDS011;2148;48.554;7.834;2023-12-28T10:34:25;4.13;;;3.33;;
4268;SDS011;2148;48.554;7.834;2023-12-28T10:36:51;4.13;;;3.23;;
4268;SDS011;2148;48.554;7.834;2023-12-28T10:39:17;6.57;;;3.43;;
4268;SDS011;2148;48.554;7.834;2023-12-28T10:41:44;3.53;;;3.03;;
4268;SDS011;2148;48.554;7.834;2023-12-28T10:44:12;4.67;;;3.20;;
4268;SDS011;2148;48.554;7.834;2023-12-28T10:46:42;4.37;;;3.00;;
4268;SDS011;2148;48.554;7.834;2023-12-28T10:51:41;3.77;;;2.90;;
4268;SDS011;2148;48.554;7.834;2023-12-28T10:56:55;4.33;;;3.30;;
4268;SDS011;2148;48.554;7.834;2023-12-28T10:59:35;4.60;;;3.10;;
4268;SDS011;2148;48.554;7.834;2023-12-28T11:02:26;4.77;;;3.20;;
4268;SDS011;2148;48.554;7.834;2023-12-28T11:04:53;2.60;;;2.40;;
4268;SDS011;2148;48.554;7.834;2023-12-28T11:07:20;3.63;;;3.10;;
4268;SDS011;2148;48.554;7.834;2023-12-28T11:09:46;4.07;;;2.90;;
4268;SDS011;2148;48.554;7.834;2023-12-28T11:12:11;4.43;;;3.13;;
4268;SDS011;2148;48.554;7.834;2023-12-28T11:14:41;3.00;;;2.80;;
4268;SDS011;2148;48.554;7.834;2023-12-28T11:17:07;4.27;;;3.10;;
4268;SDS011;2148;48.554;7.834;2023-12-28T11:19:34;3.93;;;3.10;;
4268;SDS011;2148;48.554;7.834;2023-12-28T11:22:01;3.93;;;3.17;;
4268;SDS011;2148;48.554;7.834;2023-12-28T11:24:30;2.83;;;2.63;;
4268;SDS011;2148;48.554;7.834;2023-12-28T11:26:55;1.93;;;1.83;;
4268;SDS011;2148;48.554;7.834;2023-12-28T11:29:22;3.83;;;2.70;;
4268;SDS011;2148;48.554;7.834;2023-12-28T11:31:51;5.13;;;2.70;;
4268;SDS011;2148;48.554;7.834;2023-12-28T11:34:17;4.73;;;2.40;;
4268;SDS011;2148;48.554;7.834;2023-12-28T11:36:49;3.03;;;2.73;;
4268;SDS011;2148;48.554;7.834;2023-12-28T11:39:33;5.13;;;3.00;;
4268;SDS011;2148;48.554;7.834;2023-12-28T11:41:59;4.73;;;2.40;;
4268;SDS011;2148;48.554;7.834;2023-12-28T11:44:28;1.70;;;1.60;;
4268;SDS011;2148;48.554;7.834;2023-12-28T11:46:54;3.93;;;2.37;;
4268;SDS011;2148;48.554;7.834;2023-12-28T11:49:25;3.00;;;2.80;;
4268;SDS011;2148;48.554;7.834;2023-12-28T11:51:55;3.20;;;2.97;;
4268;SDS011;2148;48.554;7.834;2023-12-28T11:54:21;4.23;;;3.10;;
4268;SDS011;2148;48.554;7.834;2023-12-28T11:56:46;4.17;;;3.10;;
4268;SDS011;2148;48.554;7.834;2023-12-28T11:59:12;4.70;;;4.20;;
4268;SDS011;2148;48.554;7.834;2023-12-28T12:01:37;4.80;;;3.90;;
4268;SDS011;2148;48.554;7.834;2023-12-28T12:04:02;7.20;;;3.77;;
4268;SDS011;2148;48.554;7.834;2023-12-28T12:06:28;7.97;;;5.93;;
4268;SDS011;2148;48.554;7.834;2023-12-28T12:08:54;5.03;;;4.33;;
4268;SDS011;2148;48.554;7.834;2023-12-28T12:11:19;3.33;;;3.03;;
4268;SDS011;2148;48.554;7.834;2023-12-28T12:13:44;3.70;;;3.13;;
4268;SDS011;2148;48.554;7.834;2023-12-28T12:16:10;3.50;;;3.17;;
4268;SDS011;2148;48.554;7.834;2023-12-28T12:18:38;4.10;;;3.40;;
4268;SDS011;2148;48.554;7.834;2023-12-28T12:21:03;5.47;;;3.30;;
4268;SDS011;2148;48.554;7.834;2023-12-28T12:23:28;3.90;;;2.80;;
4268;SDS011;2148;48.554;7.834;2023-12-28T12:25:54;3.47;;;3.17;;
4268;SDS011;2148;48.554;7.834;2023-12-28T12:28:20;6.03;;;3.93;;
4268;SDS011;2148;48.554;7.834;2023-12-28T12:30:55;4.43;;;4.03;;
4268;SDS011;2148;48.554;7.834;2023-12-28T12:33:23;3.90;;;3.50;;
4268;SDS011;2148;48.554;7.834;2023-12-28T12:35:50;6.10;;;3.57;;
4268;SDS011;2148;48.554;7.834;2023-12-28T12:38:16;14.50;;;9.67;;
4268;SDS011;2148;48.554;7.834;2023-12-28T12:40:42;4.90;;;4.03;;
4268;SDS011;2148;48.554;7.834;2023-12-28T12:43:07;3.93;;;3.57;;
4268;SDS011;2148;48.554;7.834;2023-12-28T12:45:34;6.90;;;5.30;;
4268;SDS011;2148;48.554;7.834;2023-12-28T12:47:59;5.93;;;4.83;;
4268;SDS011;2148;48.554;7.834;2023-12-28T12:50:25;4.07;;;3.67;;
4268;SDS011;2148;48.554;7.834;2023-12-28T12:52:50;7.57;;;5.77;;
4268;SDS011;2148;48.554;7.834;2023-12-28T12:55:16;3.33;;;3.03;;
4268;SDS011;2148;48.554;7.834;2023-12-28T12:57:41;3.20;;;2.90;;
4268;SDS011;2148;48.554;7.834;2023-12-28T13:00:08;3.47;;;3.17;;
4268;SDS011;2148;48.554;7.834;2023-12-28T13:02:34;5.23;;;3.20;;
4268;SDS011;2148;48.554;7.834;2023-12-28T13:05:03;6.13;;;2.87;;
4268;SDS011;2148;48.554;7.834;2023-12-28T13:07:31;3.87;;;3.00;;
4268;SDS011;2148;48.554;7.834;2023-12-28T13:09:57;3.17;;;2.87;;
4268;SDS011;2148;48.554;7.834;2023-12-28T13:12:22;4.53;;;3.43;;
4268;SDS011;2148;48.554;7.834;2023-12-28T13:14:49;3.77;;;3.43;;
4268;SDS011;2148;48.554;7.834;2023-12-28T13:17:14;4.23;;;3.20;;
4268;SDS011;2148;48.554;7.834;2023-12-28T13:19:39;3.50;;;3.20;;
4268;SDS011;2148;48.554;7.834;2023-12-28T13:22:05;3.67;;;3.37;;
4268;SDS011;2148;48.554;7.834;2023-12-28T13:24:30;4.20;;;3.80;;
4268;SDS011;2148;48.554;7.834;2023-12-28T13:26:59;3.37;;;3.07;;
4268;SDS011;2148;48.554;7.834;2023-12-28T13:29:25;4.57;;;3.60;;
4268;SDS011;2148;48.554;7.834;2023-12-28T13:31:50;2.73;;;2.40;;
4268;SDS011;2148;48.554;7.834;2023-12-28T13:34:16;5.57;;;3.90;;
4268;SDS011;2148;48.554;7.834;2023-12-28T13:36:43;5.27;;;3.80;;
4268;SDS011;2148;48.554;7.834;2023-12-28T13:39:08;5.30;;;3.00;;
4268;SDS011;2148;48.554;7.834;2023-12-28T13:41:37;3.87;;;2.87;;
4268;SDS011;2148;48.554;7.834;2023-12-28T13:44:02;3.83;;;2.97;;
4268;SDS011;2148;48.554;7.834;2023-12-28T13:46:29;4.33;;;3.80;;
4268;SDS011;2148;48.554;7.834;2023-12-28T13:48:55;4.83;;;4.37;;
4268;SDS011;2148;48.554;7.834;2023-12-28T13:51:20;7.17;;;2.83;;
4268;SDS011;2148;48.554;7.834;2023-12-28T13:53:45;3.73;;;2.83;;
4268;SDS011;2148;48.554;7.834;2023-12-28T13:56:11;4.57;;;4.00;;
4268;SDS011;2148;48.554;7.834;2023-12-28T13:58:36;8.13;;;4.50;;
4268;SDS011;2148;48.554;7.834;2023-12-28T14:01:01;4.50;;;4.10;;
4268;SDS011;2148;48.554;7.834;2023-12-28T14:03:28;4.43;;;3.30;;
4268;SDS011;2148;48.554;7.834;2023-12-28T14:05:53;4.80;;;4.20;;
4268;SDS011;2148;48.554;7.834;2023-12-28T14:08:18;3.63;;;3.30;;
4268;SDS011;2148;48.554;7.834;2023-12-28T14:10:43;6.07;;;3.80;;
4268;SDS011;2148;48.554;7.834;2023-12-28T14:13:09;3.60;;;3.20;;
4268;SDS011;2148;48.554;7.834;2023-12-28T14:15:34;3.90;;;3.10;;
4268;SDS011;2148;48.554;7.834;2023-12-28T14:17:59;3.03;;;2.83;;
4268;SDS011;2148;48.554;7.834;2023-12-28T14:20:25;5.50;;;4.40;;
4268;SDS011;2148;48.554;7.834;2023-12-28T14:22:52;4.83;;;3.87;;
4268;SDS011;2148;48.554;7.834;2023-12-28T14:25:18;4.03;;;3.60;;
4268;SDS011;2148;48.554;7.834;2023-12-28T14:27:44;3.83;;;3.43;;
4268;SDS011;2148;48.554;7.834;2023-12-28T14:30:09;5.00;;;4.60;;
4268;SDS011;2148;48.554;7.834;2023-12-28T14:32:35;6.63;;;5.00;;
4268;SDS011;2148;48.554;7.834;2023-12-28T14:35:01;4.83;;;4.40;;
4268;SDS011;2148;48.554;7.834;2023-12-28T14:37:26;4.90;;;4.50;;
4268;SDS011;2148;48.554;7.834;2023-12-28T14:39:52;6.43;;;4.27;;
4268;SDS011;2148;48.554;7.834;2023-12-28T14:42:17;4.50;;;4.10;;
4268;SDS011;2148;48.554;7.834;2023-12-28T14:44:42;8.37;;;4.30;;
4268;SDS011;2148;48.554;7.834;2023-12-28T14:47:07;7.13;;;3.83;;
4268;SDS011;2148;48.554;7.834;2023-12-28T14:49:33;5.43;;;4.50;;
4268;SDS011;2148;48.554;7.834;2023-12-28T14:51:58;5.13;;;4.73;;
4268;SDS011;2148;48.554;7.834;2023-12-28T14:54:24;6.63;;;4.97;;
4268;SDS011;2148;48.554;7.834;2023-12-28T14:56:49;5.80;;;5.13;;
4268;SDS011;2148;48.554;7.834;2023-12-28T14:59:14;6.67;;;5.47;;
4268;SDS011;2148;48.554;7.834;2023-12-28T15:01:40;5.40;;;4.80;;
4268;SDS011;2148;48.554;7.834;2023-12-28T15:04:05;6.27;;;5.43;;
4268;SDS011;2148;48.554;7.834;2023-12-28T15:06:31;6.50;;;5.30;;
4268;SDS011;2148;48.554;7.834;2023-12-28T15:08:56;5.83;;;4.30;;
4268;SDS011;2148;48.554;7.834;2023-12-28T15:11:22;4.53;;;3.67;;
4268;SDS011;2148;48.554;7.834;2023-12-28T15:13:47;6.50;;;4.00;;